Time;durP1;ratioP1;P1;durP2;ratioP2;P2;SDS_P1;SDS_P2;PMS_P1;PMS_P2;Temp;Humidity;BMP_temperature;BMP_pressure;BME280_temperature;BME280_humidity;BME280_pressure;Samples;Min_cycle;Max_cycle;Signal;HPM_P1;HPM_P2
2021/04/20 00:02:16;;;;;;;11.13;9.40;;;;;;;8.69;56.77;101591.47;5020147;28;20206;-66
2021/04/20 00:04:41;;;;;;;11.97;10.23;;;;;;;8.89;56.25;101588.56;5019770;28;20185;-67
2021/04/20 00:07:07;;;;;;;10.90;9.70;;;;;;;8.95;56.14;101588.78;5019805;28;20175;-66
2021/04/20 00:09:33;;;;;;;13.70;9.83;;;;;;;8.62;56.79;101588.63;5019394;28;20171;-68
2021/04/20 00:11:58;;;;;;;11.97;9.80;;;;;;;8.90;56.48;101585.16;5019226;28;20445;-68
2021/04/20 00:14:23;;;;;;;8.67;7.13;;;;;;;10.63;58.44;101576.72;5019811;28;20175;-57
2021/04/20 00:16:49;;;;;;;12.43;8.43;;;;;;;13.17;48.80;101563.75;5019307;28;20182;-61
2021/04/20 00:19:14;;;;;;;10.40;8.80;;;;;;;12.13;46.84;101571.84;5002397;28;20179;-69
2021/04/20 00:21:39;;;;;;;18.10;10.23;;;;;;;11.16;49.18;101567.41;5019198;28;20203;-66
2021/04/20 00:24:05;;;;;;;10.10;8.90;;;;;;;10.85;49.76;101571.97;5020614;28;20241;-71
2021/04/20 00:26:31;;;;;;;11.53;10.13;;;;;;;10.27;51.51;101575.84;5024392;28;20186;-69
2021/04/20 00:28:56;;;;;;;12.47;9.80;;;;;;;9.43;54.12;101570.22;5019628;28;20556;-66
2021/04/20 00:31:21;;;;;;;11.63;10.00;;;;;;;9.60;53.56;101573.25;5019246;28;20171;-67
2021/04/20 00:33:47;;;;;;;15.43;11.67;;;;;;;8.95;55.87;101564.50;5020682;28;20254;-68
2021/04/20 00:36:13;;;;;;;15.03;11.27;;;;;;;9.00;55.56;101563.78;5020912;28;20438;-67
2021/04/20 00:38:39;;;;;;;15.67;10.60;;;;;;;8.92;55.94;101557.50;5019211;28;20254;-68
2021/04/20 00:41:09;;;;;;;15.77;11.00;;;;;;;8.97;56.21;101553.31;5019084;28;20414;-67
2021/04/20 00:43:39;;;;;;;15.80;11.87;;;;;;;9.36;55.36;101551.78;5019583;28;20166;-67
2021/04/20 00:46:12;;;;;;;14.30;11.10;;;;;;;9.17;55.73;101539.97;5019205;28;20823;-67
2021/04/20 00:48:38;;;;;;;15.63;11.07;;;;;;;9.04;56.48;101543.97;5019111;28;20418;-67
2021/04/20 00:51:04;;;;;;;13.90;12.13;;;;;;;8.77;57.28;101550.97;5018895;28;20422;-66
2021/04/20 00:53:29;;;;;;;13.93;11.63;;;;;;;8.62;58.13;101544.44;5019108;28;20312;-67
2021/04/20 00:55:55;;;;;;;18.27;12.30;;;;;;;8.72;57.78;101543.88;5019461;28;20402;-67
2021/04/20 00:58:20;;;;;;;15.80;11.40;;;;;;;8.51;58.46;101544.09;5019043;28;20179;-66
2021/04/20 01:00:47;;;;;;;16.23;11.90;;;;;;;8.59;58.16;101538.31;5018712;28;20240;-67
2021/04/20 01:03:13;;;;;;;18.10;12.17;;;;;;;8.49;58.85;101548.38;5019094;28;20260;-66
2021/04/20 01:05:38;;;;;;;15.37;12.47;;;;;;;8.57;58.99;101545.16;5018814;28;20858;-67
2021/04/20 01:08:11;;;;;;;13.10;11.10;;;;;;;8.74;57.81;101550.00;5018919;28;20256;-67
2021/04/20 01:10:46;;;;;;;15.40;11.50;;;;;;;8.85;58.03;101553.81;5019105;28;20164;-68
2021/04/20 01:13:13;;;;;;;15.73;12.53;;;;;;;8.63;58.27;101547.06;5018576;28;20409;-67
2021/04/20 01:15:42;;;;;;;16.40;11.63;;;;;;;8.98;57.45;101546.38;5018800;28;20414;-68
2021/04/20 01:18:12;;;;;;;25.17;11.60;;;;;;;8.24;59.11;101550.16;5018677;28;20414;-67
2021/04/20 01:20:40;;;;;;;15.83;11.97;;;;;;;8.20;59.48;101548.28;5018433;28;20446;-67
2021/04/20 01:23:07;;;;;;;15.53;11.97;;;;;;;8.85;57.83;101539.91;5017837;28;20461;-67
2021/04/20 01:25:33;;;;;;;17.63;12.33;;;;;;;8.53;58.40;101547.66;5018488;28;20688;-67
2021/04/20 01:27:58;;;;;;;14.93;11.90;;;;;;;9.01;57.08;101547.34;5005888;28;20410;-67
2021/04/20 01:30:23;;;;;;;16.23;11.77;;;;;;;8.62;57.96;101552.22;5009228;28;20529;-69
2021/04/20 01:32:49;;;;;;;14.70;12.87;;;;;;;8.73;57.49;101551.72;5018578;28;20445;-68
2021/04/20 01:35:14;;;;;;;16.80;12.17;;;;;;;8.85;57.53;101550.31;5019104;28;20473;-67
2021/04/20 01:37:40;;;;;;;16.07;12.47;;;;;;;8.71;57.34;101550.81;5018401;28;20486;-66
2021/04/20 01:40:06;;;;;;;14.03;11.90;;;;;;;8.55;57.76;101548.56;5018317;28;20194;-66
2021/04/20 01:42:32;;;;;;;12.70;11.40;;;;;;;8.48;58.04;101546.59;5018736;28;20209;-67
2021/04/20 01:44:57;;;;;;;15.93;11.20;;;;;;;8.38;58.37;101546.28;5001213;28;20673;-67
2021/04/20 01:47:24;;;;;;;13.57;11.80;;;;;;;8.41;58.00;101546.38;5018429;28;20418;-67
2021/04/20 01:49:49;;;;;;;13.93;11.37;;;;;;;8.07;59.02;101545.28;5018709;28;20241;-66
2021/04/20 01:52:15;;;;;;;20.20;12.13;;;;;;;8.32;58.00;101547.81;5018274;28;20439;-67
2021/04/20 01:54:41;;;;;;;13.57;11.30;;;;;;;8.20;58.22;101540.50;5018154;28;20181;-69
2021/04/20 01:57:07;;;;;;;19.90;12.23;;;;;;;7.92;59.00;101548.25;5018707;28;20657;-67
2021/04/20 01:59:32;;;;;;;14.00;11.53;;;;;;;7.48;60.22;101541.56;5018265;28;20170;-67
2021/04/20 02:01:58;;;;;;;17.90;12.50;;;;;;;7.71;59.40;101545.84;5017994;28;20556;-66
2021/04/20 02:04:23;;;;;;;17.23;11.10;;;;;;;7.60;59.65;101541.97;5001638;28;20171;-67
2021/04/20 02:06:49;;;;;;;13.83;11.67;;;;;;;7.48;60.00;101541.56;5018236;28;20170;-67
2021/04/20 02:09:14;;;;;;;14.07;11.50;;;;;;;8.22;58.18;101539.72;5018333;28;20556;-67
2021/04/20 02:11:39;;;;;;;16.87;11.30;;;;;;;8.36;57.12;101531.47;5018299;28;20198;-67
2021/04/20 02:14:05;;;;;;;17.23;10.87;;;;;;;8.11;58.06;101540.22;5017957;28;20171;-66
2021/04/20 02:16:30;;;;;;;15.27;10.53;;;;;;;8.27;57.27;101540.75;5017973;28;20214;-66
2021/04/20 02:18:58;;;;;;;13.30;11.13;;;;;;;8.23;57.72;101535.41;5018529;28;20285;-66
2021/04/20 02:21:24;;;;;;;15.73;10.80;;;;;;;8.13;57.34;101535.94;5017977;28;20171;-68
2021/04/20 02:23:50;;;;;;;14.60;11.27;;;;;;;7.62;59.06;101535.13;5018735;28;20549;-68
2021/04/20 02:26:23;;;;;;;16.27;11.30;;;;;;;8.18;57.75;101531.78;5020705;28;20175;-67
2021/04/20 02:28:49;;;;;;;14.87;12.53;;;;;;;8.47;56.61;101532.75;5017943;28;20170;-66
2021/04/20 02:31:14;;;;;;;17.00;12.47;;;;;;;8.30;56.98;101537.38;5000801;28;20432;-66
2021/04/20 02:33:41;;;;;;;14.73;11.70;;;;;;;8.17;57.00;101527.41;5000398;28;20209;-66
2021/04/20 02:36:06;;;;;;;13.67;10.70;;;;;;;8.39;57.05;101532.47;5021226;28;20171;-66
2021/04/20 02:38:32;;;;;;;14.60;10.53;;;;;;;8.66;55.98;101529.00;5021008;28;20417;-67
2021/04/20 02:41:02;;;;;;;15.27;11.00;;;;;;;8.40;56.41;101526.44;5021620;28;20182;-67
2021/04/20 02:43:27;;;;;;;13.63;11.17;;;;;;;8.36;56.65;101527.19;5021335;28;20931;-67
2021/04/20 02:45:54;;;;;;;15.83;11.13;;;;;;;8.25;57.03;101525.94;5021592;28;20461;-67
2021/04/20 02:48:20;;;;;;;14.33;12.33;;;;;;;8.51;55.99;101520.72;5021875;28;20170;-67
2021/04/20 02:50:45;;;;;;;16.53;11.60;;;;;;;8.41;56.49;101516.91;5021082;28;20417;-67
2021/04/20 02:53:14;;;;;;;13.37;10.93;;;;;;;8.29;56.79;101517.41;5021276;28;20171;-67
2021/04/20 02:55:40;;;;;;;12.50;11.20;;;;;;;8.45;56.21;101512.72;5021824;28;20424;-67
2021/04/20 02:58:06;;;;;;;12.70;11.10;;;;;;;8.45;56.24;101516.22;5004169;28;20766;-68
2021/04/20 03:00:32;;;;;;;13.50;11.80;;;;;;;8.42;56.15;101513.50;5003871;28;20179;-67
2021/04/20 03:02:58;;;;;;;13.87;11.37;;;;;;;8.23;56.83;101515.50;5004581;28;20453;-66
2021/04/20 03:05:27;;;;;;;14.40;11.10;;;;;;;8.07;56.64;101510.66;5021068;28;20221;-68
2021/04/20 03:07:52;;;;;;;13.57;10.60;;;;;;;8.18;56.78;101511.00;5020990;28;20751;-67
2021/04/20 03:10:19;;;;;;;17.00;11.57;;;;;;;8.16;57.00;101508.38;5021348;28;20488;-67
2021/04/20 03:12:45;;;;;;;14.83;12.10;;;;;;;7.95;57.32;101510.25;5020920;28;20175;-67
2021/04/20 03:15:12;;;;;;;17.43;11.83;;;;;;;7.78;57.76;101507.09;5020681;28;20417;-67
2021/04/20 03:17:42;;;;;;;18.37;11.93;;;;;;;7.89;57.43;101511.81;5021390;28;20406;-67
2021/04/20 03:20:09;;;;;;;12.90;10.73;;;;;;;8.09;56.81;101507.28;5003813;28;20437;-67
2021/04/20 03:22:35;;;;;;;13.83;11.70;;;;;;;7.97;57.37;101512.09;5020496;28;20462;-66
2021/04/20 03:25:07;;;;;;;21.83;12.90;;;;;;;7.83;57.08;101509.00;5020438;28;20466;-67
2021/04/20 03:27:34;;;;;;;16.63;11.53;;;;;;;7.80;57.13;101508.06;5020692;28;20667;-66
2021/04/20 03:29:59;;;;;;;16.70;11.13;;;;;;;7.93;57.42;101510.22;5003957;28;20866;-67
2021/04/20 03:32:25;;;;;;;14.47;12.20;;;;;;;7.82;57.18;101507.28;5003316;28;20417;-67
2021/04/20 03:34:57;;;;;;;13.90;11.50;;;;;;;7.91;57.25;101502.38;5020257;28;20251;-67
2021/04/20 03:37:26;;;;;;;17.77;11.10;;;;;;;8.00;56.59;101501.78;5003956;28;20437;-67
2021/04/20 03:39:53;;;;;;;13.57;11.50;;;;;;;7.87;56.77;101502.22;5003416;28;20425;-67
2021/04/20 03:42:21;;;;;;;13.80;11.37;;;;;;;7.97;56.77;101501.69;5003234;28;20502;-67
2021/04/20 03:44:50;;;;;;;13.53;11.10;;;;;;;7.90;56.66;101494.53;5003488;28;20417;-68
2021/04/20 03:47:20;;;;;;;17.77;12.80;;;;;;;8.03;56.69;101496.69;5019732;28;20426;-67
2021/04/20 03:49:47;;;;;;;13.50;10.80;;;;;;;7.61;57.55;101497.03;5003108;28;20815;-67
2021/04/20 03:52:23;;;;;;;17.13;12.03;;;;;;;7.88;56.77;101493.59;5003118;28;20452;-67
2021/04/20 03:54:50;;;;;;;15.80;11.20;;;;;;;8.03;56.34;101481.09;5003073;28;20424;-67
2021/04/20 03:57:17;;;;;;;15.90;11.20;;;;;;;7.99;56.51;101486.16;5020049;28;20438;-66
2021/04/20 03:59:45;;;;;;;14.93;11.90;;;;;;;7.85;56.68;101490.91;5002956;28;20510;-67
2021/04/20 04:02:11;;;;;;;19.70;12.60;;;;;;;7.74;57.32;101483.66;5002994;28;20449;-68
2021/04/20 04:04:37;;;;;;;13.93;11.53;;;;;;;7.37;57.62;101492.78;5019879;28;20414;-68
2021/04/20 04:07:03;;;;;;;16.93;12.63;;;;;;;7.50;57.51;101493.22;5002786;28;20464;-67
2021/04/20 04:09:29;;;;;;;16.13;11.60;;;;;;;7.55;57.15;101491.63;5003287;28;20410;-69
2021/04/20 04:11:59;;;;;;;16.40;12.50;;;;;;;7.27;58.38;101493.28;5019656;28;20791;-67
2021/04/20 04:14:27;;;;;;;13.43;11.53;;;;;;;7.82;56.71;101496.00;5002792;28;20181;-67
2021/04/20 04:16:52;;;;;;;14.77;11.70;;;;;;;7.75;57.04;101493.22;5020418;28;20839;-67
2021/04/20 04:19:20;;;;;;;15.40;12.23;;;;;;;7.96;56.35;101492.13;5002553;28;20417;-68
2021/04/20 04:21:52;;;;;;;15.47;11.67;;;;;;;7.84;56.83;101494.34;5002560;28;20198;-67
2021/04/20 04:24:18;;;;;;;17.27;12.73;;;;;;;8.02;55.90;101489.72;5004563;28;20489;-67
2021/04/20 04:26:50;;;;;;;20.67;12.27;;;;;;;8.22;55.46;101492.97;5023589;28;20410;-68
2021/04/20 04:29:15;;;;;;;14.33;10.80;;;;;;;7.93;56.11;101492.03;5019910;28;20422;-68
2021/04/20 04:31:44;;;;;;;13.57;11.40;;;;;;;7.73;56.76;101481.88;5002683;28;20406;-68
2021/04/20 04:34:13;;;;;;;14.60;12.23;;;;;;;8.16;55.94;101494.47;5019309;28;20195;-67
2021/04/20 04:36:40;;;;;;;14.03;11.30;;;;;;;7.99;56.28;101483.56;5002561;28;20476;-67
2021/04/20 04:39:05;;;;;;;15.83;11.50;;;;;;;8.06;56.39;101496.81;5019399;28;20426;-68
2021/04/20 04:41:33;;;;;;;16.77;12.60;;;;;;;8.23;55.55;101484.34;5002456;28;20454;-67
2021/04/20 04:43:58;;;;;;;14.60;11.23;;;;;;;8.31;55.58;101488.88;5019752;28;20190;-67
2021/04/20 04:46:24;;;;;;;20.03;14.93;;;;;;;7.84;58.42;101494.34;4995023;28;20450;-67
2021/04/20 04:48:50;;;;;;;16.93;14.30;;;;;;;8.39;56.72;101487.44;5002487;28;20291;-66
2021/04/20 04:51:16;;;;;;;15.30;12.40;;;;;;;8.55;54.63;101491.38;5007071;28;20179;-68
2021/04/20 04:53:42;;;;;;;16.60;11.70;;;;;;;8.24;55.35;101490.41;5001934;28;20516;-68
2021/04/20 04:56:08;;;;;;;13.77;10.90;;;;;;;8.30;54.96;101490.59;4987171;28;20481;-67
2021/04/20 04:58:35;;;;;;;13.17;11.73;;;;;;;8.66;54.28;101487.41;5000027;28;20435;-66
2021/04/20 05:01:02;;;;;;;15.13;11.73;;;;;;;8.47;54.73;101485.97;5013900;28;20219;-66
2021/04/20 05:03:27;;;;;;;17.50;12.97;;;;;;;8.30;55.47;101492.34;5017016;28;20532;-67
2021/04/20 05:06:02;;;;;;;14.13;11.37;;;;;;;8.04;55.78;101497.59;5000110;28;20784;-68
2021/04/20 05:08:28;;;;;;;18.70;12.10;;;;;;;8.62;54.30;101497.66;4999800;28;20175;-68
2021/04/20 05:11:03;;;;;;;14.97;11.43;;;;;;;8.51;54.60;101490.44;4999613;28;20423;-67
2021/04/20 05:13:29;;;;;;;13.20;10.30;;;;;;;8.84;53.66;101493.97;4999892;28;20222;-67
2021/04/20 05:15:55;;;;;;;13.17;10.83;;;;;;;8.47;54.87;101503.25;5003103;28;20761;-67
2021/04/20 05:18:23;;;;;;;13.20;10.90;;;;;;;8.99;53.70;101483.13;5018523;28;20437;-67
2021/04/20 05:20:49;;;;;;;15.03;11.43;;;;;;;8.94;54.14;101493.38;5001489;28;20178;-66
2021/04/20 05:23:15;;;;;;;13.63;10.53;;;;;;;9.19;52.68;101496.69;5016774;28;20925;-67
2021/04/20 05:25:41;;;;;;;14.73;10.80;;;;;;;9.28;52.53;101491.72;5018937;28;20206;-67
2021/04/20 05:28:06;;;;;;;13.33;10.97;;;;;;;9.14;53.47;101496.53;5000584;28;20543;-67
2021/04/20 05:30:32;;;;;;;11.43;10.10;;;;;;;9.44;52.03;101493.91;5016575;28;20187;-67
2021/04/20 05:32:59;;;;;;;16.23;10.43;;;;;;;9.20;52.54;101495.81;5002340;28;20187;-67
2021/04/20 05:35:24;;;;;;;12.50;9.83;;;;;;;9.55;52.29;101486.38;5000821;28;20689;-66
2021/04/20 05:37:50;;;;;;;12.10;10.90;;;;;;;8.64;54.88;101489.06;5018364;28;20448;-68
2021/04/20 05:40:21;;;;;;;16.60;10.10;;;;;;;9.59;52.24;101492.53;5018624;28;20163;-68
2021/04/20 05:42:46;;;;;;;11.13;9.93;;;;;;;10.84;49.38;101477.19;5018193;28;20237;-68
2021/04/20 05:45:14;;;;;;;13.60;10.50;;;;;;;12.78;43.71;101469.03;5017176;28;20743;-67
2021/04/20 05:47:41;;;;;;;12.97;9.90;;;;;;;14.20;40.26;101464.25;5017431;28;20564;-68
2021/04/20 05:50:10;;;;;;;9.40;8.10;;;;;;;14.45;38.73;101457.44;5009854;28;20451;-67
2021/04/20 05:52:36;;;;;;;10.23;9.17;;;;;;;14.86;37.99;101453.25;4997872;28;20426;-68
2021/04/20 05:55:03;;;;;;;11.97;8.77;;;;;;;15.38;36.83;101455.09;5008039;28;20505;-68
2021/04/20 05:57:29;;;;;;;17.43;9.40;;;;;;;16.39;35.86;101450.66;5018049;28;20436;-67
2021/04/20 05:59:55;;;;;;;10.50;9.00;;;;;;;17.07;33.51;101453.03;5017983;28;20502;-67
2021/04/20 06:02:21;;;;;;;14.90;9.00;;;;;;;16.42;34.37;101450.66;5018469;28;20191;-68
2021/04/20 06:04:47;;;;;;;11.47;9.33;;;;;;;16.23;35.12;101455.09;5018021;28;20505;-68
2021/04/20 06:07:14;;;;;;;10.90;8.93;;;;;;;16.74;33.78;101454.06;5007019;28;20567;-67
2021/04/20 06:09:42;;;;;;;12.03;8.23;;;;;;;16.98;33.46;101455.72;5000654;28;20482;-67
2021/04/20 06:12:08;;;;;;;12.73;9.10;;;;;;;17.69;32.89;101455.22;4985287;28;20419;-68
2021/04/20 06:14:34;;;;;;;11.00;8.23;;;;;;;14.68;37.93;101455.81;5001581;28;20411;-68
2021/04/20 06:16:59;;;;;;;10.33;8.03;;;;;;;17.79;32.18;101445.47;5002534;28;20864;-67
2021/04/20 06:19:25;;;;;;;13.27;7.70;;;;;;;17.11;32.94;101457.38;5001452;28;20498;-67
2021/04/20 06:21:50;;;;;;;10.10;8.83;;;;;;;17.30;32.33;101454.66;5001463;28;20200;-67
2021/04/20 06:24:16;;;;;;;18.23;7.97;;;;;;;17.78;31.45;101448.97;5003589;28;20250;-69
2021/04/20 06:26:42;;;;;;;11.40;8.53;;;;;;;16.98;32.76;101460.97;5021991;28;20552;-66
2021/04/20 06:29:07;;;;;;;8.23;7.40;;;;;;;17.68;31.81;101461.38;5021907;28;20175;-66
2021/04/20 06:31:34;;;;;;;11.70;8.20;;;;;;;16.57;34.25;101464.66;5020288;28;20198;-68
2021/04/20 06:34:00;;;;;;;10.70;7.60;;;;;;;18.23;31.47;101454.75;5020822;28;20245;-68
2021/04/20 06:36:25;;;;;;;11.00;8.00;;;;;;;18.15;30.97;101448.69;5021608;28;20410;-67
2021/04/20 06:38:51;;;;;;;10.53;8.00;;;;;;;20.26;28.01;101439.41;5021597;28;20232;-68
2021/04/20 06:41:18;;;;;;;9.80;7.10;;;;;;;15.45;34.30;101456.88;5019089;28;20194;-68
2021/04/20 06:43:57;;;;;;;12.87;7.50;;;;;;;16.50;34.32;101451.50;5021338;28;20186;-68
2021/04/20 06:46:33;;;;;;;9.03;8.20;;;;;;;17.76;31.75;101451.63;5020774;28;20417;-69
2021/04/20 06:49:03;;;;;;;13.20;7.43;;;;;;;19.19;28.26;101448.28;5001008;28;20434;-67
2021/04/20 06:51:37;;;;;;;10.50;7.10;;;;;;;16.16;34.02;101448.97;5017862;28;20831;-67
2021/04/20 06:54:26;;;;;;;9.00;6.80;;;;;;;16.26;33.17;101457.72;5006547;28;20452;-68
2021/04/20 06:57:11;;;;;;;12.10;7.30;;;;;;;18.96;29.46;101440.69;4984442;28;20434;-66
2021/04/20 06:59:39;;;;;;;7.43;6.60;;;;;;;17.68;31.14;101449.09;5029830;28;20457;-66
2021/04/20 07:02:26;;;;;;;17.83;12.80;;;;;;;19.49;27.33;101441.63;5031103;28;20502;-66
2021/04/20 07:04:56;;;;;;;8.30;7.60;;;;;;;20.47;27.27;101439.88;5040080;28;20727;-67
2021/04/20 07:07:32;;;;;;;14.60;11.00;;;;;;;20.48;26.52;101444.28;5040643;28;20795;-66
2021/04/20 07:10:05;;;;;;;10.10;6.80;;;;;;;16.43;31.82;101456.81;5023521;28;20842;-67
2021/04/20 07:12:33;;;;;;;9.30;6.50;;;;;;;17.49;30.90;101448.38;5004045;28;20466;-66
2021/04/20 07:14:59;;;;;;;8.73;6.60;;;;;;;17.77;30.37;101448.13;5020297;28;20417;-67
2021/04/20 07:17:34;;;;;;;15.03;7.07;;;;;;;15.39;34.56;101462.13;5019984;28;20421;-67
2021/04/20 07:20:25;;;;;;;11.57;6.90;;;;;;;18.70;28.83;101441.88;5013410;28;20457;-67
2021/04/20 07:23:28;;;;;;;6.53;5.70;;;;;;;15.83;32.49;101455.19;5018918;28;20496;-67
2021/04/20 07:26:14;;;;;;;8.17;6.47;;;;;;;17.85;29.43;101443.66;5020683;28;20488;-69
2021/04/20 07:29:17;;;;;;;7.43;6.10;;;;;;;20.09;26.94;101436.22;5038930;28;20716;-67
2021/04/20 07:32:00;;;;;;;9.87;7.60;;;;;;;19.67;26.95;101434.28;5017450;28;20491;-68
2021/04/20 07:34:39;;;;;;;8.10;5.77;;;;;;;21.28;25.17;101431.06;5020105;28;20445;-68
2021/04/20 07:37:12;;;;;;;7.67;6.27;;;;;;;20.76;25.03;101427.84;5018546;28;20464;-67
2021/04/20 07:39:54;;;;;;;6.33;5.73;;;;;;;21.40;24.67;101429.91;4998606;28;20745;-67
2021/04/20 07:42:25;;;;;;;6.93;6.17;;;;;;;23.97;21.40;101420.59;5005979;28;20786;-68
2021/04/20 07:44:59;;;;;;;7.60;5.83;;;;;;;23.25;22.43;101421.22;5015316;28;20496;-67
2021/04/20 07:47:26;;;;;;;8.07;6.30;;;;;;;23.34;21.99;101418.25;5001943;28;20433;-67
2021/04/20 07:50:11;;;;;;;7.70;5.50;;;;;;;20.29;25.40;101427.91;5018628;28;20503;-67
2021/04/20 07:53:02;;;;;;;6.13;5.53;;;;;;;22.48;21.95;101417.31;5015124;28;20437;-69
2021/04/20 07:55:33;;;;;;;10.60;5.97;;;;;;;18.69;27.57;101426.91;5019806;28;20418;-67
2021/04/20 07:58:10;;;;;;;6.70;6.00;;;;;;;20.69;25.29;101427.13;5002344;28;20524;-67
2021/04/20 08:00:40;;;;;;;8.40;5.93;;;;;;;21.95;23.21;101411.72;5020334;28;20433;-69
2021/04/20 08:03:26;;;;;;;6.70;5.40;;;;;;;24.34;20.55;101411.22;5018315;28;20461;-67
2021/04/20 08:06:02;;;;;;;7.10;5.43;;;;;;;20.86;24.43;101422.31;5012608;28;20445;-69
2021/04/20 08:08:35;;;;;;;6.57;5.97;;;;;;;22.74;22.32;101412.16;5019673;28;20425;-67
2021/04/20 08:11:22;;;;;;;5.60;5.10;;;;;;;20.18;24.00;101414.88;5012610;28;20444;-67
2021/04/20 08:14:05;;;;;;;9.60;5.80;;;;;;;20.06;25.79;101418.63;5017834;28;20448;-68
2021/04/20 08:16:35;;;;;;;13.33;5.57;;;;;;;18.65;27.17;101425.22;5017994;28;20473;-66
2021/04/20 08:19:06;;;;;;;19.50;6.10;;;;;;;19.67;25.73;101419.31;5014345;28;20469;-68
2021/04/20 08:21:32;;;;;;;13.17;5.90;;;;;;;21.61;23.26;101407.28;5012059;28;20446;-67
2021/04/20 08:24:00;;;;;;;6.53;5.03;;;;;;;24.16;20.43;101403.00;4998769;28;20880;-65
2021/04/20 08:26:39;;;;;;;6.30;5.07;;;;;;;22.05;22.03;101402.56;4993816;28;20455;-68
2021/04/20 08:29:11;;;;;;;5.13;4.60;;;;;;;19.94;24.96;101414.44;5018842;28;20441;-70
2021/04/20 08:31:39;;;;;;;9.17;5.40;;;;;;;20.47;23.79;101421.34;5017637;28;20458;-68
2021/04/20 08:34:33;;;;;;;7.90;5.07;;;;;;;22.98;21.78;101398.09;5018477;28;20796;-67
2021/04/20 08:37:01;;;;;;;6.20;4.70;;;;;;;24.28;19.35;101398.16;5018423;28;20402;-68
2021/04/20 08:39:51;;;;;;;6.37;4.87;;;;;;;22.31;21.10;101398.31;5019206;28;20417;-68
2021/04/20 08:42:24;;;;;;;7.93;5.20;;;;;;;24.80;19.33;101397.97;5018280;28;20741;-67
2021/04/20 08:44:59;;;;;;;6.37;4.73;;;;;;;25.16;18.92;101392.09;5016139;28;20442;-68
2021/04/20 08:47:48;;;;;;;7.43;4.70;;;;;;;21.94;21.81;101397.56;5014271;28;20452;-69
2021/04/20 08:50:17;;;;;;;7.37;4.90;;;;;;;20.42;23.41;101413.50;5018149;28;20536;-67
2021/04/20 08:53:13;;;;;;;7.27;5.07;;;;;;;18.65;26.00;101422.56;5017476;28;20453;-67
2021/04/20 08:56:19;;;;;;;7.67;5.03;;;;;;;22.19;21.88;101391.56;5016346;28;20450;-66
2021/04/20 08:59:03;;;;;;;7.83;4.83;;;;;;;21.29;23.01;101398.34;5018844;28;20410;-67
2021/04/20 09:01:46;;;;;;;4.90;4.50;;;;;;;24.09;18.89;101396.16;5016564;28;20847;-67
2021/04/20 09:04:56;;;;;;;13.30;5.40;;;;;;;23.70;20.04;101388.66;5018788;28;20502;-67
2021/04/20 09:07:43;;;;;;;8.20;4.80;;;;;;;21.23;22.28;101396.72;5018620;28;20410;-67
2021/04/20 09:10:32;;;;;;;7.37;5.13;;;;;;;21.05;23.31;101395.38;5018690;28;20405;-66
2021/04/20 09:13:05;;;;;;;6.60;5.10;;;;;;;21.51;22.35;101388.94;4999905;28;20522;-68
2021/04/20 09:15:34;;;;;;;6.30;4.67;;;;;;;21.64;21.44;101386.88;4997593;28;20446;-66
2021/04/20 09:18:04;;;;;;;10.07;4.83;;;;;;;23.49;20.38;101382.25;5017801;28;20473;-68
2021/04/20 09:20:45;;;;;;;11.03;5.03;;;;;;;23.81;19.19;101386.47;5018299;28;20418;-68
2021/04/20 09:23:21;;;;;;;6.27;5.00;;;;;;;20.42;22.70;101400.25;5018081;28;20499;-67
2021/04/20 09:25:54;;;;;;;6.30;4.50;;;;;;;22.62;21.23;101386.81;5016067;28;20445;-67
2021/04/20 09:28:29;;;;;;;10.77;8.93;;;;;;;24.39;18.62;101388.81;5017766;28;20511;-67
2021/04/20 09:30:57;;;;;;;10.00;4.80;;;;;;;21.43;21.36;101393.53;5016491;28;20448;-67
2021/04/20 09:33:46;;;;;;;6.03;4.80;;;;;;;25.88;17.21;101386.38;4999447;28;20511;-66
2021/04/20 09:36:12;;;;;;;7.30;4.73;;;;;;;24.38;18.51;101386.22;5003620;28;20419;-67
2021/04/20 09:38:45;;;;;;;8.20;4.90;;;;;;;20.93;21.52;101400.97;4998535;28;20493;-66
2021/04/20 09:41:10;;;;;;;5.20;4.50;;;;;;;21.62;21.42;101388.69;5017181;28;20453;-66
2021/04/20 09:43:54;;;;;;;10.50;4.73;;;;;;;20.84;21.49;101408.22;5000810;28;20533;-66
2021/04/20 09:46:35;;;;;;;5.33;4.67;;;;;;;19.95;23.84;101391.50;4999571;28;20206;-66
2021/04/20 09:49:14;;;;;;;5.90;5.03;;;;;;;21.42;21.66;101383.88;4996518;28;20445;-66
2021/04/20 09:51:53;;;;;;;6.80;4.90;;;;;;;22.46;19.97;101376.66;5015450;28;20547;-66
2021/04/20 09:54:28;;;;;;;5.20;4.70;;;;;;;22.78;19.61;101380.09;4997191;28;20535;-66
2021/04/20 09:56:55;;;;;;;7.63;4.43;;;;;;;19.35;22.61;101393.41;4997695;28;20575;-66
2021/04/20 09:59:33;;;;;;;6.00;4.50;;;;;;;19.42;23.45;101392.41;4999517;28;20464;-63
2021/04/20 10:01:58;;;;;;;5.33;4.83;;;;;;;22.24;19.98;101384.34;5007800;28;20496;-65
2021/04/20 10:04:53;;;;;;;5.87;4.60;;;;;;;20.05;22.36;101393.03;5015741;28;20446;-66
2021/04/20 10:07:40;;;;;;;9.87;4.50;;;;;;;22.28;20.07;101380.69;4997816;28;20190;-65
2021/04/20 10:10:28;;;;;;;8.80;6.90;;;;;;;24.75;17.71;101373.28;5017103;28;20428;-64
2021/04/20 10:13:12;;;;;;;7.30;5.20;;;;;;;23.14;19.64;101374.56;5016954;28;20444;-65
2021/04/20 10:15:46;;;;;;;5.00;4.50;;;;;;;20.62;21.45;101399.84;5017292;28;20501;-66
2021/04/20 10:18:19;;;;;;;8.00;5.13;;;;;;;20.05;23.24;101377.16;5014790;28;20569;-65
2021/04/20 10:20:52;;;;;;;16.23;7.10;;;;;;;22.36;21.22;101369.88;5017054;28;20422;-67
2021/04/20 10:23:26;;;;;;;5.50;5.00;;;;;;;20.15;23.20;101389.31;5000502;28;20753;-65
2021/04/20 10:26:14;;;;;;;12.17;6.90;;;;;;;21.78;21.30;101377.66;5018366;28;20417;-66
2021/04/20 10:28:52;;;;;;;8.10;4.60;;;;;;;20.07;23.49;101383.31;4999938;28;20434;-66
2021/04/20 10:31:21;;;;;;;9.77;5.03;;;;;;;23.48;20.09;101367.25;4998063;28;20426;-65
2021/04/20 10:33:49;;;;;;;6.77;6.03;;;;;;;24.56;18.38;101363.31;4999117;28;20496;-65
2021/04/20 10:36:16;;;;;;;6.47;5.00;;;;;;;22.64;19.59;101355.75;5013854;28;20430;-65
2021/04/20 10:38:41;;;;;;;7.67;4.90;;;;;;;23.21;18.90;101362.78;5017390;28;20415;-66
2021/04/20 10:41:28;;;;;;;6.43;4.80;;;;;;;21.97;19.91;101376.22;5000428;28;20422;-67
2021/04/20 10:43:55;;;;;;;5.83;4.47;;;;;;;24.73;18.39;101349.34;4999653;28;20195;-67
2021/04/20 10:46:24;;;;;;;10.20;5.50;;;;;;;24.16;18.58;101349.72;5016809;28;20767;-64
2021/04/20 10:48:52;;;;;;;6.83;4.80;;;;;;;24.94;17.45;101350.28;5014885;28;20460;-65
2021/04/20 10:51:18;;;;;;;5.03;4.53;;;;;;;25.71;17.18;101344.38;5014007;28;20445;-66
2021/04/20 10:53:45;;;;;;;5.47;4.43;;;;;;;21.26;20.55;101356.00;4994134;28;20894;-65
2021/04/20 10:56:13;;;;;;;7.63;5.03;;;;;;;21.83;19.92;101350.06;5019758;28;20441;-65
2021/04/20 10:58:47;;;;;;;6.60;5.70;;;;;;;25.16;16.63;101342.25;5002861;28;20865;-65
2021/04/20 11:01:14;;;;;;;5.67;4.70;;;;;;;25.22;16.00;101336.66;5006632;28;20464;-66
2021/04/20 11:03:40;;;;;;;6.60;4.90;;;;;;;23.39;17.81;101349.78;5026193;28;20493;-66
2021/04/20 11:06:07;;;;;;;4.80;4.40;;;;;;;22.10;19.47;101346.69;5018916;28;20453;-67
2021/04/20 11:08:39;;;;;;;6.87;5.20;;;;;;;20.13;21.15;101362.03;5015531;28;20188;-66
2021/04/20 11:11:05;;;;;;;6.53;4.40;;;;;;;19.77;21.97;101353.88;4992882;28;20426;-66
2021/04/20 11:13:35;;;;;;;8.87;7.97;;;;;;;22.59;18.94;101334.63;5019387;28;20475;-66
2021/04/20 11:16:06;;;;;;;7.00;5.10;;;;;;;23.63;18.41;101332.09;5018759;28;20274;-67
2021/04/20 11:18:34;;;;;;;5.50;4.70;;;;;;;22.01;18.33;101342.50;5020303;28;20449;-67
2021/04/20 11:21:00;;;;;;;5.50;5.00;;;;;;;22.97;18.30;101336.97;5018560;28;20540;-68
2021/04/20 11:23:28;;;;;;;5.70;5.17;;;;;;;23.37;17.83;101325.03;5017105;28;20533;-67
2021/04/20 11:26:10;;;;;;;5.70;4.90;;;;;;;22.09;18.23;101337.84;5017218;28;20591;-67
2021/04/20 11:28:59;;;;;;;5.37;4.80;;;;;;;24.25;17.24;101319.22;5019705;28;20413;-67
2021/04/20 11:31:34;;;;;;;8.53;5.43;;;;;;;20.32;20.28;101337.78;5002445;28;20704;-66
2021/04/20 11:34:05;;;;;;;11.03;5.20;;;;;;;21.31;19.95;101328.44;5011978;28;20714;-67
2021/04/20 11:36:41;;;;;;;9.23;5.40;;;;;;;23.66;17.90;101317.81;5012059;28;20528;-68